Time;durP1;ratioP1;P1;durP2;ratioP2;P2;SDS_P1;SDS_P2;PMS_P1;PMS_P2;Temp;Humidity;BMP_temperature;BMP_pressure;BME280_temperature;BME280_humidity;BME280_pressure;Samples;Min_cycle;Max_cycle;Signal;HPM_P1;HPM_P2
2023/01/17 00:01:58;;;;;;;1.10;0.57;;;2.10;99.90;;;;;;6153945;23;20604;-76
2023/01/17 00:10:06;;;;;;;1.13;0.63;;;1.90;99.90;;;;;;6155302;23;20166;-75
2023/01/17 00:12:35;;;;;;;1.23;0.60;;;1.90;99.90;;;;;;6154393;23;20166;-77
2023/01/17 00:15:04;;;;;;;0.57;0.57;;;1.90;99.90;;;;;;6154825;23;20501;-77
2023/01/17 00:17:32;;;;;;;0.50;0.50;;;1.90;99.90;;;;;;6154085;23;20260;-78
2023/01/17 01:35:49;;;;;;;0.57;0.57;;;1.80;99.90;;;;;;6153685;23;20182;-75
2023/01/17 01:38:17;;;;;;;2.07;0.70;;;1.80;99.90;;;;;;6154179;23;20194;-75
2023/01/17 01:40:49;;;;;;;1.73;0.97;;;1.80;99.90;;;;;;6154085;23;20519;-76
2023/01/17 01:43:20;;;;;;;1.33;0.60;;;1.70;99.90;;;;;;6153519;23;20409;-78
2023/01/17 01:45:52;;;;;;;1.10;0.50;;;1.70;99.90;;;;;;6153878;23;20205;-77
2023/01/17 01:48:32;;;;;;;1.10;0.63;;;1.70;99.90;;;;;;6153947;23;20248;-75
2023/01/17 01:51:03;;;;;;;1.87;0.70;;;1.60;99.90;;;;;;6154003;23;20629;-78
2023/01/17 01:53:35;;;;;;;3.10;0.53;;;1.60;99.90;;;;;;6153220;23;20562;-76
2023/01/17 01:56:10;;;;;;;2.20;0.60;;;1.60;99.90;;;;;;6154094;23;20261;-77
2023/01/17 01:58:40;;;;;;;1.43;0.60;;;1.70;99.90;;;;;;6154146;23;20427;-77
2023/01/17 02:01:09;;;;;;;1.10;0.73;;;1.70;99.90;;;;;;6155550;23;20944;-77
2023/01/17 02:03:39;;;;;;;1.37;0.83;;;1.70;99.90;;;;;;6154536;23;20257;-78
2023/01/17 02:06:19;;;;;;;1.23;0.70;;;1.60;99.90;;;;;;6155417;23;20409;-77
2023/01/17 02:08:48;;;;;;;1.63;0.70;;;1.60;99.90;;;;;;6155685;23;20166;-77
2023/01/17 02:11:18;;;;;;;1.70;0.73;;;1.50;99.90;;;;;;6155219;23;20405;-77
2023/01/17 02:13:46;;;;;;;1.03;0.70;;;1.60;99.90;;;;;;6155503;23;20405;-77
2023/01/17 02:16:25;;;;;;;2.03;0.80;;;1.60;99.90;;;;;;6155671;23;20431;-77
2023/01/17 02:19:02;;;;;;;0.97;0.70;;;1.60;99.90;;;;;;6154947;23;20181;-77
2023/01/17 02:21:34;;;;;;;1.70;0.70;;;1.60;99.90;;;;;;6155633;23;20220;-77
2023/01/17 02:24:33;;;;;;;0.50;0.47;;;1.50;99.90;;;;;;6155027;23;20170;-76
2023/01/17 02:27:16;;;;;;;1.63;0.97;;;1.50;99.90;;;;;;6155445;23;20629;-76
2023/01/17 02:30:20;;;;;;;1.80;0.70;;;1.40;99.90;;;;;;6154816;23;20689;-75
2023/01/17 02:33:03;;;;;;;2.80;0.70;;;1.40;99.90;;;;;;6153443;23;20450;-77
2023/01/17 02:35:37;;;;;;;2.93;0.80;;;1.40;99.90;;;;;;6155576;23;20397;-78
2023/01/17 02:38:15;;;;;;;0.70;0.50;;;1.30;99.90;;;;;;6154540;23;20918;-76
2023/01/17 02:40:47;;;;;;;1.10;0.80;;;1.20;99.90;;;;;;6155051;23;20193;-77
2023/01/17 02:43:18;;;;;;;0.70;0.57;;;1.20;99.90;;;;;;6154856;23;20213;-78
2023/01/17 02:45:46;;;;;;;2.87;0.70;;;1.20;99.90;;;;;;6155428;23;20476;-77
2023/01/17 02:48:20;;;;;;;2.40;0.80;;;1.10;99.90;;;;;;6154983;23;20409;-77
2023/01/17 02:51:15;;;;;;;2.10;0.80;;;1.10;99.90;;;;;;6155101;23;20174;-77
2023/01/17 02:53:54;;;;;;;0.83;0.60;;;1.00;99.90;;;;;;6154428;23;20409;-77
2023/01/17 02:56:34;;;;;;;1.87;0.73;;;0.90;99.90;;;;;;6155494;23;20170;-77
2023/01/17 02:59:13;;;;;;;0.60;0.60;;;0.90;99.90;;;;;;6154506;23;20184;-77
2023/01/17 03:01:55;;;;;;;1.07;0.77;;;0.90;99.90;;;;;;6154791;23;20955;-77
2023/01/17 03:04:31;;;;;;;1.40;0.77;;;0.90;99.90;;;;;;6154761;23;20477;-75
2023/01/17 03:07:03;;;;;;;1.70;0.73;;;0.90;99.90;;;;;;6154846;23;20389;-78
2023/01/17 03:09:32;;;;;;;1.63;0.53;;;0.90;99.90;;;;;;6155214;23;20493;-77
2023/01/17 03:12:05;;;;;;;3.50;0.80;;;0.90;99.90;;;;;;6154690;23;20409;-76
2023/01/17 03:14:33;;;;;;;1.50;0.80;;;0.90;99.90;;;;;;6154406;23;20972;-76
2023/01/17 03:17:01;;;;;;;1.93;0.70;;;0.90;99.90;;;;;;6154281;23;20448;-76
2023/01/17 03:19:30;;;;;;;0.97;0.87;;;0.90;99.90;;;;;;6154900;23;20413;-76
2023/01/17 03:21:59;;;;;;;2.00;0.70;;;0.90;99.90;;;;;;6154510;23;20465;-76
2023/01/17 03:24:27;;;;;;;1.93;0.80;;;1.00;99.90;;;;;;6154806;23;20406;-76
2023/01/17 03:26:55;;;;;;;0.40;0.40;;;1.00;99.90;;;;;;6154397;23;20409;-77
2023/01/17 03:29:23;;;;;;;0.53;0.53;;;1.00;99.90;;;;;;6154425;23;20504;-77
2023/01/17 03:31:51;;;;;;;2.13;0.80;;;0.90;99.90;;;;;;6154434;23;20429;-78
2023/01/17 03:34:19;;;;;;;0.73;0.60;;;0.90;99.90;;;;;;6154941;23;20422;-77
2023/01/17 03:36:48;;;;;;;2.40;0.70;;;0.80;99.90;;;;;;6163320;23;21106;-76
2023/01/17 03:39:16;;;;;;;1.50;0.60;;;0.80;99.90;;;;;;6161043;23;20507;-77
2023/01/17 03:41:45;;;;;;;1.93;0.97;;;0.80;99.90;;;;;;6154522;23;21143;-77
2023/01/17 03:44:13;;;;;;;1.27;0.67;;;0.70;99.90;;;;;;6154115;23;20415;-75
2023/01/17 03:46:42;;;;;;;2.20;0.60;;;0.60;99.90;;;;;;6154723;23;20492;-77
2023/01/17 03:49:10;;;;;;;0.83;0.67;;;0.60;99.90;;;;;;6154242;23;20508;-77
2023/01/17 03:51:38;;;;;;;0.90;0.53;;;0.60;99.90;;;;;;6154329;23;20413;-77
2023/01/17 03:54:07;;;;;;;1.10;0.70;;;0.60;99.90;;;;;;6153961;23;20421;-77
2023/01/17 03:56:35;;;;;;;1.57;0.73;;;0.70;99.90;;;;;;6154102;23;20200;-77
2023/01/17 03:59:04;;;;;;;0.63;0.60;;;0.60;99.90;;;;;;6154635;23;20409;-77
2023/01/17 04:01:32;;;;;;;2.90;0.80;;;0.60;99.90;;;;;;6154452;23;20198;-77
2023/01/17 04:04:01;;;;;;;2.70;0.90;;;0.60;99.90;;;;;;6153393;23;20418;-77
2023/01/17 04:06:29;;;;;;;2.47;0.93;;;0.70;99.90;;;;;;6154078;23;20509;-77
2023/01/17 04:08:57;;;;;;;1.80;0.70;;;0.70;99.90;;;;;;6154232;23;20905;-77
2023/01/17 04:11:26;;;;;;;1.43;0.80;;;0.60;99.90;;;;;;6153833;23;20492;-77
2023/01/17 04:13:55;;;;;;;1.63;0.80;;;0.60;99.90;;;;;;6153797;23;21000;-77
2023/01/17 04:16:27;;;;;;;1.57;1.10;;;0.60;99.90;;;;;;6154440;23;20417;-77
2023/01/17 04:18:55;;;;;;;0.80;0.70;;;0.60;99.90;;;;;;6154096;23;20389;-77
2023/01/17 04:21:23;;;;;;;2.83;1.10;;;0.50;99.90;;;;;;6153978;23;20752;-77
2023/01/17 04:23:52;;;;;;;2.43;1.27;;;0.50;99.90;;;;;;6153818;23;20419;-78
2023/01/17 04:26:20;;;;;;;4.43;0.87;;;0.50;99.90;;;;;;6153882;23;20496;-77
2023/01/17 04:28:49;;;;;;;1.53;0.80;;;0.50;99.90;;;;;;6152261;23;20409;-77
2023/01/17 04:31:17;;;;;;;0.90;0.70;;;0.50;99.90;;;;;;6153747;23;20433;-77
2023/01/17 04:33:45;;;;;;;1.93;0.80;;;0.40;99.90;;;;;;6153928;23;20792;-75
2023/01/17 04:36:14;;;;;;;1.47;0.70;;;0.40;99.90;;;;;;6154094;23;20417;-76
2023/01/17 04:38:42;;;;;;;2.70;0.70;;;0.40;99.90;;;;;;6154292;23;20495;-77
2023/01/17 04:41:10;;;;;;;2.97;1.00;;;0.30;99.90;;;;;;6153502;23;20524;-77
2023/01/17 04:43:38;;;;;;;2.20;0.70;;;0.30;99.90;;;;;;6153434;23;20427;-76
2023/01/17 04:46:08;;;;;;;2.00;0.80;;;0.30;99.90;;;;;;6154242;23;20398;-75
2023/01/17 04:48:37;;;;;;;2.60;1.10;;;0.30;99.90;;;;;;6153923;23;20178;-76
2023/01/17 04:51:06;;;;;;;1.83;0.83;;;0.20;99.90;;;;;;6153231;23;20903;-75
2023/01/17 04:53:34;;;;;;;1.93;0.80;;;0.30;99.90;;;;;;6154058;23;20415;-75
2023/01/17 04:56:02;;;;;;;1.10;0.60;;;0.30;99.90;;;;;;6153575;23;20409;-76
2023/01/17 04:58:32;;;;;;;2.27;0.73;;;0.40;99.90;;;;;;6153991;23;20417;-77
2023/01/17 05:01:03;;;;;;;2.20;0.80;;;0.30;99.90;;;;;;6153719;23;20237;-77
2023/01/17 05:03:34;;;;;;;2.27;0.80;;;0.30;99.90;;;;;;6153577;23;20460;-75
2023/01/17 05:06:02;;;;;;;2.30;0.80;;;0.40;99.90;;;;;;6153748;23;20253;-78
2023/01/17 05:08:30;;;;;;;1.63;0.60;;;0.40;99.90;;;;;;6154159;23;20420;-74
2023/01/17 05:10:58;;;;;;;1.60;0.70;;;0.40;99.90;;;;;;6154243;23;20700;-75
2023/01/17 05:13:26;;;;;;;2.63;0.87;;;0.40;99.90;;;;;;6153744;23;20829;-75
2023/01/17 05:15:55;;;;;;;2.13;0.73;;;0.40;99.90;;;;;;6153532;23;20472;-77
2023/01/17 05:18:24;;;;;;;3.17;0.90;;;0.50;99.90;;;;;;6152464;23;20204;-76
2023/01/17 05:20:53;;;;;;;1.27;0.80;;;0.50;99.90;;;;;;6154105;23;20409;-77
2023/01/17 05:23:21;;;;;;;1.67;1.20;;;0.40;99.90;;;;;;6153559;23;20274;-77
2023/01/17 05:25:49;;;;;;;3.13;1.00;;;0.50;99.90;;;;;;6153195;23;20448;-77
2023/01/17 05:28:17;;;;;;;2.37;0.97;;;0.40;99.90;;;;;;6153055;23;20410;-77
2023/01/17 05:30:45;;;;;;;2.47;0.97;;;0.40;99.90;;;;;;6153855;23;20433;-76
2023/01/17 05:33:13;;;;;;;1.97;1.00;;;0.40;99.90;;;;;;6154621;23;20789;-76
2023/01/17 05:35:41;;;;;;;1.50;0.90;;;0.40;99.90;;;;;;6155636;23;20182;-76
2023/01/17 05:38:11;;;;;;;1.67;0.90;;;0.40;99.90;;;;;;6157594;23;20409;-76
2023/01/17 05:40:39;;;;;;;1.63;0.93;;;0.30;99.90;;;;;;6157282;23;20499;-77
2023/01/17 05:43:08;;;;;;;2.43;1.17;;;0.30;99.90;;;;;;6156058;23;20441;-77
2023/01/17 05:45:36;;;;;;;3.53;1.57;;;0.30;99.90;;;;;;6156245;23;20182;-76
2023/01/17 05:48:05;;;;;;;5.27;1.90;;;0.20;99.90;;;;;;6156518;23;20857;-75
2023/01/17 05:50:35;;;;;;;1.93;1.50;;;0.20;99.90;;;;;;6156181;23;20931;-76
2023/01/17 05:53:05;;;;;;;1.37;1.27;;;0.20;99.90;;;;;;6157664;23;20468;-75
2023/01/17 05:55:35;;;;;;;2.80;1.40;;;0.10;99.90;;;;;;6155671;23;20499;-77
2023/01/17 05:58:04;;;;;;;4.83;1.30;;;0.00;99.90;;;;;;6155398;23;20420;-77
2023/01/17 06:00:32;;;;;;;2.33;1.10;;;0.00;99.90;;;;;;6154998;23;20415;-76
2023/01/17 06:03:01;;;;;;;4.03;1.57;;;-0.10;99.90;;;;;;6155546;23;20440;-77
2023/01/17 06:05:29;;;;;;;2.63;1.20;;;-0.20;99.90;;;;;;6155611;23;20413;-77
2023/01/17 06:07:58;;;;;;;1.47;1.33;;;-0.20;99.90;;;;;;6155470;23;20504;-77
2023/01/17 06:10:27;;;;;;;3.73;1.30;;;-0.20;99.90;;;;;;6155477;23;20921;-77
2023/01/17 06:13:04;;;;;;;3.40;1.67;;;-0.30;99.90;;;;;;6155308;23;20406;-77
2023/01/17 06:15:34;;;;;;;3.20;1.53;;;-0.30;99.90;;;;;;6155968;23;20452;-78
2023/01/17 06:18:06;;;;;;;3.33;1.30;;;-0.40;99.90;;;;;;6155973;23;20405;-77
2023/01/17 06:20:35;;;;;;;1.47;1.23;;;-0.40;99.90;;;;;;6155752;23;20424;-77
2023/01/17 06:23:04;;;;;;;3.70;1.63;;;-0.40;99.90;;;;;;6154697;23;20448;-77
2023/01/17 06:25:37;;;;;;;4.10;1.90;;;-0.50;99.90;;;;;;6155891;23;20405;-77
2023/01/17 06:28:07;;;;;;;1.97;1.43;;;-0.50;99.90;;;;;;6155841;23;20415;-77
2023/01/17 06:30:35;;;;;;;3.23;1.23;;;-0.60;99.90;;;;;;6155192;23;20755;-77
2023/01/17 06:33:03;;;;;;;2.00;1.30;;;-0.60;99.90;;;;;;6154848;23;20434;-77
2023/01/17 06:35:32;;;;;;;4.13;1.33;;;-0.60;99.90;;;;;;6156358;23;20425;-78
2023/01/17 06:38:00;;;;;;;2.07;1.23;;;-0.50;99.90;;;;;;6154899;23;20447;-76
2023/01/17 06:40:29;;;;;;;2.93;1.37;;;-0.60;99.90;;;;;;6155203;23;20753;-76
2023/01/17 06:43:00;;;;;;;3.57;1.20;;;-0.60;99.90;;;;;;6154174;23;20547;-78
2023/01/17 06:45:31;;;;;;;2.90;1.20;;;-0.70;99.90;;;;;;6155648;23;20417;-76
2023/01/17 06:48:02;;;;;;;1.13;0.97;;;-0.70;99.90;;;;;;6155446;23;20483;-77
2023/01/17 06:50:31;;;;;;;1.70;1.10;;;-0.70;99.90;;;;;;6155386;23;20416;-76
2023/01/17 06:53:01;;;;;;;2.10;1.10;;;-0.80;99.90;;;;;;6154515;23;20448;-76
2023/01/17 06:55:30;;;;;;;3.27;1.20;;;-0.70;99.90;;;;;;6155170;23;20423;-76
2023/01/17 06:57:58;;;;;;;1.50;1.00;;;-0.80;99.90;;;;;;6154679;23;20421;-77
2023/01/17 07:00:27;;;;;;;2.03;1.10;;;-0.80;99.90;;;;;;6155278;23;20475;-78
2023/01/17 07:02:58;;;;;;;1.43;1.07;;;-0.80;99.90;;;;;;6154476;23;20774;-77
2023/01/17 07:05:27;;;;;;;4.93;1.20;;;-0.90;99.90;;;;;;6154949;23;20416;-78
2023/01/17 07:07:55;;;;;;;2.97;1.10;;;-0.90;99.90;;;;;;6154773;23;20449;-75
2023/01/17 07:10:23;;;;;;;1.40;1.10;;;-0.90;99.90;;;;;;6155210;23;20412;-76
2023/01/17 07:12:52;;;;;;;2.20;1.33;;;-0.90;99.90;;;;;;6154676;23;20495;-77
2023/01/17 07:15:20;;;;;;;1.30;1.20;;;-0.90;99.90;;;;;;6154995;23;20714;-77
2023/01/17 07:17:48;;;;;;;2.30;1.33;;;-0.90;99.90;;;;;;6153969;23;20408;-76
2023/01/17 07:20:18;;;;;;;2.13;1.60;;;-0.90;99.90;;;;;;6155084;23;20507;-76
2023/01/17 07:22:46;;;;;;;3.27;1.93;;;-1.00;99.90;;;;;;6154445;23;20457;-76
2023/01/17 07:25:14;;;;;;;2.57;1.60;;;-1.00;99.90;;;;;;6155331;23;20417;-76
2023/01/17 07:27:42;;;;;;;2.90;1.60;;;-1.00;99.90;;;;;;6153622;23;20741;-78
2023/01/17 07:30:11;;;;;;;1.87;1.67;;;-0.90;99.90;;;;;;6152564;23;20413;-76
2023/01/17 07:32:39;;;;;;;5.30;1.70;;;-0.80;99.90;;;;;;6153953;23;20508;-77
2023/01/17 07:35:08;;;;;;;2.63;1.80;;;-0.80;99.90;;;;;;6154197;23;20412;-78
2023/01/17 07:37:37;;;;;;;5.77;2.43;;;-0.80;99.90;;;;;;6154987;23;20405;-77
2023/01/17 07:40:07;;;;;;;5.00;2.53;;;-0.80;99.90;;;;;;6154920;23;20503;-78
2023/01/17 07:42:36;;;;;;;4.87;2.53;;;-0.70;99.90;;;;;;6154601;23;20531;-77
2023/01/17 07:45:05;;;;;;;3.00;2.27;;;-0.70;99.90;;;;;;6154022;23;21004;-76
2023/01/17 07:47:33;;;;;;;3.80;2.27;;;-0.70;99.90;;;;;;6154786;23;20413;-79
2023/01/17 07:50:01;;;;;;;4.40;2.30;;;-0.60;99.90;;;;;;6154681;23;20504;-77
2023/01/17 07:52:30;;;;;;;5.50;2.30;;;-0.70;99.90;;;;;;6154196;23;20493;-78
2023/01/17 07:54:59;;;;;;;3.67;2.03;;;-0.60;99.90;;;;;;6154948;23;20260;-77
2023/01/17 07:57:27;;;;;;;4.87;1.93;;;-0.50;99.90;;;;;;6154169;23;20429;-78
2023/01/17 07:59:55;;;;;;;4.33;1.90;;;-0.40;99.90;;;;;;6157611;23;20188;-77
2023/01/17 08:02:23;;;;;;;3.20;1.90;;;-0.30;99.90;;;;;;6157449;23;20413;-76
2023/01/17 08:04:52;;;;;;;4.03;2.00;;;-0.20;99.90;;;;;;6163375;23;20543;-78
2023/01/17 08:07:20;;;;;;;2.80;1.30;;;0.40;99.90;;;;;;6154659;23;20409;-76
2023/01/17 08:09:49;;;;;;;2.23;1.60;;;1.10;99.90;;;;;;6154503;23;20188;-76
2023/01/17 08:12:18;;;;;;;2.30;1.43;;;2.00;99.90;;;;;;6154227;23;20268;-76
2023/01/17 08:14:46;;;;;;;4.07;1.50;;;2.50;99.90;;;;;;6154341;23;20186;-77
2023/01/17 08:17:16;;;;;;;3.67;1.20;;;3.30;99.90;;;;;;6154804;23;20208;-78
2023/01/17 08:19:44;;;;;;;3.13;1.60;;;4.20;99.90;;;;;;6154290;23;20509;-78
2023/01/17 08:22:12;;;;;;;2.67;1.70;;;4.30;99.90;;;;;;6154509;23;20185;-76
2023/01/17 08:24:41;;;;;;;3.27;1.70;;;4.80;99.90;;;;;;6154597;23;20255;-77
2023/01/17 08:27:10;;;;;;;2.93;1.40;;;4.80;99.90;;;;;;6154391;23;20633;-77
2023/01/17 08:29:45;;;;;;;3.40;1.73;;;5.30;99.90;;;;;;6153589;23;20192;-77
2023/01/17 08:32:13;;;;;;;3.63;1.87;;;5.70;99.90;;;;;;6154305;23;20205;-78
2023/01/17 08:34:42;;;;;;;2.40;1.63;;;5.80;99.90;;;;;;6154520;23;20192;-77
2023/01/17 08:37:10;;;;;;;2.87;1.60;;;6.10;99.90;;;;;;6154151;23;20209;-77
2023/01/17 08:39:38;;;;;;;2.10;1.60;;;6.20;99.90;;;;;;6154469;23;20627;-78
2023/01/17 08:42:06;;;;;;;3.40;2.00;;;5.90;99.90;;;;;;6153650;23;20185;-77
2023/01/17 08:44:34;;;;;;;3.47;1.77;;;6.10;99.90;;;;;;6154138;23;20204;-77
2023/01/17 08:47:04;;;;;;;3.10;1.80;;;5.70;99.90;;;;;;6153879;23;20188;-78
2023/01/17 08:49:32;;;;;;;2.60;1.80;;;5.50;99.90;;;;;;6154214;23;20193;-76
2023/01/17 08:52:00;;;;;;;3.27;2.00;;;5.20;99.90;;;;;;6154243;23;20182;-77
2023/01/17 08:54:28;;;;;;;3.60;1.90;;;5.10;99.90;;;;;;6154108;23;20514;-75
2023/01/17 08:56:56;;;;;;;3.43;1.70;;;5.40;99.90;;;;;;6153451;23;20646;-76
2023/01/17 08:59:24;;;;;;;3.13;2.07;;;5.20;99.90;;;;;;6154375;23;20165;-75
2023/01/17 09:01:56;;;;;;;4.57;1.90;;;5.60;99.90;;;;;;6154041;23;20213;-78
2023/01/17 09:04:26;;;;;;;4.00;2.00;;;5.80;99.90;;;;;;6154092;23;20190;-78
2023/01/17 09:06:56;;;;;;;3.50;1.77;;;5.80;99.90;;;;;;6154509;23;20233;-79
2023/01/17 09:09:24;;;;;;;4.53;1.90;;;5.70;99.90;;;;;;6155302;23;20546;-77
2023/01/17 09:11:53;;;;;;;3.77;1.63;;;5.00;99.90;;;;;;6155254;23;20185;-77
2023/01/17 09:14:21;;;;;;;3.07;1.63;;;5.00;99.90;;;;;;6156309;23;20252;-78
2023/01/17 09:16:49;;;;;;;2.77;1.60;;;5.10;99.90;;;;;;6155983;23;20634;-78
2023/01/17 09:19:18;;;;;;;4.23;1.53;;;4.90;99.90;;;;;;6155732;23;20273;-78
2023/01/17 09:21:47;;;;;;;1.63;1.33;;;4.90;99.90;;;;;;6156197;23;20186;-75
2023/01/17 09:24:15;;;;;;;1.97;1.53;;;4.50;99.90;;;;;;6155864;23;20201;-78
2023/01/17 09:26:43;;;;;;;3.07;1.50;;;4.40;99.90;;;;;;6155557;23;20237;-76
2023/01/17 09:29:16;;;;;;;2.87;1.33;;;4.40;99.90;;;;;;6156035;23;20181;-78
2023/01/17 09:31:46;;;;;;;3.23;1.80;;;4.30;99.90;;;;;;6155777;23;20711;-77
2023/01/17 09:34:14;;;;;;;2.83;1.50;;;4.30;99.90;;;;;;6155969;23;20261;-78
2023/01/17 09:36:42;;;;;;;2.10;1.30;;;4.30;99.90;;;;;;6155897;23;20181;-78
2023/01/17 09:39:14;;;;;;;3.40;1.33;;;4.50;99.90;;;;;;6155903;23;20499;-76
2023/01/17 09:41:49;;;;;;;3.03;1.60;;;4.60;99.90;;;;;;6155441;23;20279;-77
2023/01/17 09:44:25;;;;;;;7.37;4.20;;;4.70;99.90;;;;;;6155555;23;20202;-76
2023/01/17 09:46:56;;;;;;;4.90;2.00;;;4.70;99.90;;;;;;6156034;23;20256;-77
2023/01/17 09:49:34;;;;;;;3.27;1.40;;;4.90;99.90;;;;;;6155707;23;20166;-76
2023/01/17 09:52:03;;;;;;;3.10;1.70;;;5.20;99.90;;;;;;6155357;23;20217;-77
2023/01/17 09:54:35;;;;;;;1.97;1.40;;;5.50;99.90;;;;;;6155135;23;20174;-77
2023/01/17 09:57:13;;;;;;;2.20;1.33;;;5.60;99.90;;;;;;6155607;23;20199;-77
2023/01/17 09:59:48;;;;;;;3.27;1.40;;;6.30;99.90;;;;;;6155930;23;20552;-76
2023/01/17 10:02:53;;;;;;;2.83;1.60;;;7.30;99.90;;;;;;6154938;23;20241;-77
2023/01/17 10:05:37;;;;;;;3.30;1.30;;;7.90;99.90;;;;;;6155727;23;20197;-76
2023/01/17 10:08:27;;;;;;;1.63;1.20;;;8.90;99.90;;;;;;6154106;23;20205;-76
2023/01/17 10:11:17;;;;;;;1.77;1.10;;;9.90;99.60;;;;;;6160557;23;20202;-76
2023/01/17 10:13:53;;;;;;;3.03;1.27;;;10.80;95.10;;;;;;6167138;23;20166;-77
2023/01/17 10:16:30;;;;;;;2.27;1.00;;;11.80;93.00;;;;;;6170977;23;20185;-76
2023/01/17 10:19:16;;;;;;;1.57;0.90;;;12.10;90.40;;;;;;6166738;23;20208;-75
2023/01/17 10:22:09;;;;;;;1.50;0.67;;;12.70;89.10;;;;;;6158517;23;20245;-77
2023/01/17 10:25:11;;;;;;;0.87;0.60;;;12.30;88.20;;;;;;6158670;23;20697;-75
2023/01/17 10:27:47;;;;;;;0.83;0.60;;;11.80;83.10;;;;;;6140802;23;20721;-76
2023/01/17 10:30:20;;;;;;;0.93;0.63;;;11.10;86.90;;;;;;6156098;23;20497;-76
2023/01/17 10:32:49;;;;;;;1.10;0.80;;;11.50;86.70;;;;;;6155631;23;20481;-78
2023/01/17 10:35:23;;;;;;;1.53;0.83;;;10.90;85.50;;;;;;6156244;23;20178;-77
2023/01/17 10:37:55;;;;;;;1.43;0.90;;;11.30;85.60;;;;;;6155430;23;20267;-77
2023/01/17 10:40:28;;;;;;;0.93;0.67;;;11.10;84.10;;;;;;6155060;23;20285;-78
2023/01/17 10:43:03;;;;;;;2.47;0.90;;;12.10;81.40;;;;;;6154630;23;20688;-77
2023/01/17 10:45:37;;;;;;;1.17;0.80;;;13.30;78.40;;;;;;6155580;23;20268;-78
2023/01/17 10:48:14;;;;;;;0.80;0.80;;;13.40;75.90;;;;;;6154979;23;20186;-75
2023/01/17 10:50:52;;;;;;;2.23;0.80;;;11.80;75.80;;;;;;6155101;23;20605;-78
2023/01/17 10:53:34;;;;;;;0.97;0.87;;;9.90;82.80;;;;;;6155119;23;20170;-74
2023/01/17 10:56:03;;;;;;;0.80;0.63;;;11.40;79.90;;;;;;6155665;23;20161;-76
2023/01/17 10:58:33;;;;;;;1.03;0.70;;;12.00;77.80;;;;;;6154617;23;20221;-76
2023/01/17 11:01:05;;;;;;;1.70;0.70;;;13.50;73.60;;;;;;6155285;23;20212;-77
2023/01/17 11:03:34;;;;;;;0.90;0.77;;;13.40;72.60;;;;;;6154535;23;20170;-76
2023/01/17 11:06:17;;;;;;;4.17;3.30;;;12.90;70.70;;;;;;6154197;23;20198;-76
2023/01/17 11:08:51;;;;;;;1.60;0.73;;;12.50;71.60;;;;;;6154705;23;20192;-78
2023/01/17 11:11:21;;;;;;;1.33;0.83;;;13.80;69.60;;;;;;6154950;23;20664;-77
2023/01/17 11:13:54;;;;;;;0.87;0.70;;;12.50;71.20;;;;;;6154206;23;20184;-77
2023/01/17 11:16:26;;;;;;;1.30;1.10;;;12.10;72.60;;;;;;6155002;23;20209;-76
2023/01/17 11:19:15;;;;;;;4.53;1.70;;;10.80;73.80;;;;;;6155290;23;20181;-77
2023/01/17 11:21:52;;;;;;;2.10;1.13;;;9.20;79.30;;;;;;6155377;23;20166;-78
2023/01/17 11:24:25;;;;;;;1.77;1.00;;;8.90;83.40;;;;;;6154446;23;20197;-76
2023/01/17 11:26:54;;;;;;;2.30;1.40;;;8.30;88.00;;;;;;6155300;23;20166;-75
2023/01/17 11:29:35;;;;;;;1.70;0.93;;;7.90;90.40;;;;;;6155077;23;20273;-77
2023/01/17 11:32:29;;;;;;;1.70;1.10;;;7.80;89.70;;;;;;6153902;23;20247;-77
2023/01/17 11:35:14;;;;;;;1.20;0.97;;;8.20;89.70;;;;;;6155573;23;20222;-77
2023/01/17 11:37:52;;;;;;;1.50;0.90;;;7.30;91.00;;;;;;6156325;23;20170;-76
2023/01/17 11:40:29;;;;;;;1.67;0.83;;;6.70;92.90;;;;;;6154992;23;20188;-76
2023/01/17 11:43:04;;;;;;;2.60;1.07;;;6.70;93.00;;;;;;6154588;23;20166;-77
2023/01/17 11:45:34;;;;;;;1.47;0.90;;;6.60;93.50;;;;;;6159117;23;20197;-76
2023/01/17 11:48:15;;;;;;;1.23;1.00;;;6.50;93.80;;;;;;6156518;23;20249;-76
2023/01/17 11:50:47;;;;;;;3.10;1.00;;;6.10;95.70;;;;;;6154308;23;20516;-76
2023/01/17 11:53:23;;;;;;;1.60;1.00;;;5.70;98.50;;;;;;6154626;23;20166;-76
2023/01/17 11:56:04;;;;;;;1.00;0.80;;;5.70;98.50;;;;;;6155177;23;20162;-77
2023/01/17 11:58:33;;;;;;;2.00;1.00;;;5.60;98.30;;;;;;6154398;23;20189;-78
2023/01/17 12:01:13;;;;;;;1.30;1.00;;;5.60;97.60;;;;;;6154579;23;20182;-78
2023/01/17 12:04:00;;;;;;;1.63;1.03;;;5.20;96.90;;;;;;6154337;23;20166;-76
2023/01/17 12:06:36;;;;;;;1.73;1.10;;;5.10;97.90;;;;;;6154434;23;20272;-77
2023/01/17 12:09:32;;;;;;;1.47;1.00;;;5.10;98.80;;;;;;6153871;23;20645;-75
2023/01/17 12:15:05;;;;;;;1.60;1.20;;;5.00;99.90;;;;;;6154238;23;20233;-76
2023/01/17 12:17:49;;;;;;;2.27;1.40;;;5.00;99.90;;;;;;6154130;23;20571;-78
2023/01/17 12:20:24;;;;;;;3.90;1.27;;;4.90;99.90;;;;;;6154722;23;20170;-76
2023/01/17 12:23:12;;;;;;;3.33;1.10;;;4.80;99.90;;;;;;6154220;23;20213;-75
2023/01/17 12:26:04;;;;;;;2.00;1.20;;;4.50;99.90;;;;;;6153948;23;20189;-76
2023/01/17 12:28:59;;;;;;;1.53;1.10;;;4.30;99.90;;;;;;6154597;23;20494;-77
2023/01/17 12:31:32;;;;;;;2.23;1.33;;;4.30;99.90;;;;;;6154614;23;20572;-77
2023/01/17 12:34:19;;;;;;;2.17;1.20;;;4.20;99.90;;;;;;6153529;23;20196;-76
2023/01/17 12:36:52;;;;;;;2.00;1.30;;;4.30;99.90;;;;;;6154195;23;20170;-76
2023/01/17 12:39:26;;;;;;;1.97;1.20;;;4.20;99.90;;;;;;6154537;23;20178;-76
2023/01/17 12:42:01;;;;;;;2.17;1.20;;;4.40;99.90;;;;;;6153841;23;20165;-78
2023/01/17 12:44:46;;;;;;;1.83;1.20;;;4.50;99.90;;;;;;6153770;23;20181;-78
2023/01/17 12:47:15;;;;;;;2.60;1.30;;;4.50;99.90;;;;;;6154525;23;20173;-77
2023/01/17 12:49:50;;;;;;;2.20;1.17;;;4.60;99.90;;;;;;6154556;23;20186;-77
2023/01/17 12:52:24;;;;;;;1.93;1.30;;;4.50;99.90;;;;;;6153780;23;20248;-77
2023/01/17 12:54:58;;;;;;;1.80;1.37;;;4.40;99.90;;;;;;6154086;23;20720;-77
2023/01/17 12:57:31;;;;;;;2.10;1.17;;;4.20;99.90;;;;;;6154478;23;20288;-76
2023/01/17 13:00:04;;;;;;;1.90;1.33;;;4.30;99.90;;;;;;6153775;23;20174;-78
2023/01/17 13:02:38;;;;;;;2.80;1.20;;;4.20;99.90;;;;;;6153738;23;20174;-76
2023/01/17 13:05:14;;;;;;;2.40;1.10;;;4.30;99.90;;;;;;6154622;23;20248;-77
2023/01/17 13:07:49;;;;;;;2.77;1.20;;;4.30;99.90;;;;;;6154384;23;20197;-76
2023/01/17 13:10:28;;;;;;;2.17;1.30;;;4.20;99.90;;;;;;6154616;23;20280;-76
2023/01/17 13:13:04;;;;;;;2.87;1.60;;;4.20;99.90;;;;;;6153549;23;20170;-76
2023/01/17 13:15:37;;;;;;;2.20;1.20;;;4.20;99.90;;;;;;6153631;23;20191;-78
2023/01/17 13:18:14;;;;;;;6.93;4.20;;;4.20;99.90;;;;;;6153854;23;20173;-77
2023/01/17 13:21:07;;;;;;;2.53;1.27;;;4.30;99.90;;;;;;6154557;23;20169;-77
2023/01/17 13:23:54;;;;;;;1.43;1.30;;;4.20;99.90;;;;;;6153707;23;20201;-77
2023/01/17 13:26:38;;;;;;;2.07;1.30;;;4.10;99.90;;;;;;6154360;23;20318;-77
2023/01/17 13:29:16;;;;;;;1.73;1.10;;;4.10;99.90;;;;;;6154254;23;20169;-76
2023/01/17 13:31:47;;;;;;;3.33;1.37;;;4.00;99.90;;;;;;6153721;23;20232;-76
2023/01/17 13:34:36;;;;;;;3.77;1.60;;;4.00;99.90;;;;;;6154303;23;20176;-78
2023/01/17 13:37:25;;;;;;;2.57;1.47;;;3.90;99.90;;;;;;6153986;23;20188;-77
2023/01/17 13:40:10;;;;;;;5.03;1.40;;;4.00;99.90;;;;;;6153977;23;20173;-76
2023/01/17 13:42:53;;;;;;;2.43;1.47;;;4.00;99.90;;;;;;6152382;23;20255;-77
2023/01/17 13:45:23;;;;;;;2.23;1.70;;;3.80;99.90;;;;;;6154086;23;20170;-77
2023/01/17 13:47:52;;;;;;;3.10;1.30;;;3.80;99.90;;;;;;6154467;23;20185;-77
2023/01/17 13:50:49;;;;;;;3.23;1.43;;;3.80;99.90;;;;;;6154557;23;20188;-75
2023/01/17 13:53:46;;;;;;;4.50;1.50;;;3.70;99.90;;;;;;6145776;23;20638;-77
2023/01/17 13:56:23;;;;;;;2.93;1.40;;;3.70;99.90;;;;;;6155864;23;20479;-76
2023/01/17 13:59:12;;;;;;;4.07;1.67;;;3.60;99.90;;;;;;6155600;23;20271;-78
2023/01/17 14:01:51;;;;;;;3.07;1.50;;;3.70;99.90;;;;;;6152197;23;20241;-77
2023/01/17 14:04:20;;;;;;;2.37;1.27;;;3.70;99.90;;;;;;6156254;23;20166;-77
2023/01/17 14:06:55;;;;;;;2.83;1.53;;;3.70;99.90;;;;;;6156283;23;20201;-77
2023/01/17 14:09:41;;;;;;;1.97;1.40;;;3.80;99.90;;;;;;6156660;23;20667;-77
2023/01/17 14:12:32;;;;;;;3.23;1.60;;;3.80;99.90;;;;;;6156320;23;20185;-78
2023/01/17 14:15:02;;;;;;;2.23;1.30;;;3.90;99.90;;;;;;6155611;23;20204;-77
2023/01/17 14:17:58;;;;;;;2.07;1.23;;;3.90;99.90;;;;;;6155571;23;20185;-77
2023/01/17 14:20:46;;;;;;;3.93;1.53;;;3.90;99.90;;;;;;6155638;23;20186;-77
2023/01/17 14:23:42;;;;;;;2.53;1.20;;;4.00;99.90;;;;;;6155389;23;20254;-76
2023/01/17 14:26:42;;;;;;;2.53;1.40;;;4.00;99.90;;;;;;6155630;23;20218;-77
2023/01/17 14:29:46;;;;;;;2.03;1.20;;;4.00;99.90;;;;;;6155006;23;20169;-77
2023/01/17 14:32:17;;;;;;;4.00;1.60;;;3.70;99.90;;;;;;6154989;23;20211;-77
2023/01/17 14:34:47;;;;;;;3.40;1.60;;;3.60;99.90;;;;;;6155415;23;20182;-77
2023/01/17 14:37:20;;;;;;;2.80;1.33;;;3.60;99.90;;;;;;6155503;23;20201;-77
2023/01/17 14:39:50;;;;;;;3.37;1.30;;;3.50;99.90;;;;;;6156003;23;20189;-78
2023/01/17 14:42:22;;;;;;;2.13;1.20;;;3.50;99.90;;;;;;6154605;23;20178;-77
2023/01/17 14:44:54;;;;;;;3.60;1.60;;;3.50;99.90;;;;;;6155149;23;20174;-78
2023/01/17 14:47:23;;;;;;;6.20;1.50;;;3.50;99.90;;;;;;6155072;23;20190;-77
2023/01/17 14:50:18;;;;;;;3.53;1.63;;;3.40;99.90;;;;;;6157602;23;20186;-77
2023/01/17 14:52:47;;;;;;;3.00;1.83;;;3.30;99.90;;;;;;6159422;23;20216;-76